UPS2245 PHNL-KONT
Flight info
| Callsign | UPS2245 |
|---|---|
| Flight time | 4h 57m |
| Altitude | 33000 |
| Route | MKK5 CODDY EBBER R577 ETECO/N0488F350 R577 ELKEY KARLB3 |
| Aircraft | MD11/H-SDE1E2E3FGHIJ2J3J4J5M1RWXY/LB1D1 |
Departure
| Time | 2026-05-07 15:42 |
|---|---|
| Airport | Daniel K. Inouye International Airport (PHNL) |
Arrival
| Time | 2026-05-07 20:39 |
|---|---|
| Airport | Ontario International Airport (KONT) |
| Time | Latitude | Longitude | Altitude | Speed | Heading |
|---|---|---|---|---|---|
| 2026-05-07 15:20 | 21.31826 | -157.91645 | 31 ft | 0 kts | 143° |
| 2026-05-07 15:29 | 21.31834 | -157.91652 | 30 ft | 4 kts | 143° |
| 2026-05-07 15:29 | 21.31856 | -157.91670 | 31 ft | 4 kts | 143° |
| 2026-05-07 15:29 | 21.31874 | -157.91684 | 30 ft | 3 kts | 143° |
| 2026-05-07 15:30 | 21.31894 | -157.91697 | 31 ft | 4 kts | 173° |
| 2026-05-07 15:30 | 21.31914 | -157.91694 | 28 ft | 3 kts | 214° |
| 2026-05-07 15:30 | 21.31934 | -157.91680 | 31 ft | 3 kts | 215° |
| 2026-05-07 15:30 | 21.31937 | -157.91677 | 31 ft | 0 kts | 215° |
| 2026-05-07 15:33 | 21.31903 | -157.91707 | 31 ft | 13 kts | 224° |
| 2026-05-07 15:33 | 21.31834 | -157.91800 | 31 ft | 17 kts | 233° |
| 2026-05-07 15:34 | 21.31767 | -157.91892 | 31 ft | 14 kts | 230° |
| 2026-05-07 15:34 | 21.31716 | -157.91965 | 32 ft | 12 kts | 234° |
| 2026-05-07 15:34 | 21.31668 | -157.92033 | 32 ft | 13 kts | 233° |
| 2026-05-07 15:34 | 21.31599 | -157.92131 | 32 ft | 20 kts | 233° |
| 2026-05-07 15:35 | 21.31504 | -157.92265 | 32 ft | 25 kts | 233° |
| 2026-05-07 15:35 | 21.31392 | -157.92425 | 30 ft | 26 kts | 233° |
| 2026-05-07 15:35 | 21.31288 | -157.92549 | 32 ft | 17 kts | 202° |
| 2026-05-07 15:35 | 21.31193 | -157.92517 | 32 ft | 15 kts | 144° |
| 2026-05-07 15:36 | 21.31094 | -157.92429 | 32 ft | 22 kts | 137° |
| 2026-05-07 15:36 | 21.31003 | -157.92384 | 32 ft | 8 kts | 198° |
| 2026-05-07 15:36 | 21.30983 | -157.92419 | 32 ft | 9 kts | 252° |
| 2026-05-07 15:36 | 21.30972 | -157.92551 | 32 ft | 28 kts | 270° |
| 2026-05-07 15:37 | 21.30971 | -157.92773 | 32 ft | 29 kts | 270° |
| 2026-05-07 15:37 | 21.30971 | -157.92983 | 32 ft | 29 kts | 270° |
| 2026-05-07 15:37 | 21.30973 | -157.93208 | 32 ft | 31 kts | 270° |
| 2026-05-07 15:37 | 21.30971 | -157.93438 | 32 ft | 29 kts | 269° |
| 2026-05-07 15:38 | 21.30970 | -157.93642 | 32 ft | 26 kts | 270° |
| 2026-05-07 15:38 | 21.30970 | -157.93821 | 32 ft | 22 kts | 270° |
| 2026-05-07 15:38 | 21.30969 | -157.93978 | 32 ft | 20 kts | 270° |
| 2026-05-07 15:38 | 21.30970 | -157.94118 | 32 ft | 18 kts | 270° |
| 2026-05-07 15:39 | 21.30970 | -157.94250 | 32 ft | 19 kts | 270° |
| 2026-05-07 15:39 | 21.30972 | -157.94398 | 32 ft | 20 kts | 271° |
| 2026-05-07 15:39 | 21.30970 | -157.94530 | 32 ft | 14 kts | 254° |
| 2026-05-07 15:39 | 21.30908 | -157.94569 | 31 ft | 9 kts | 185° |
| 2026-05-07 15:40 | 21.30814 | -157.94571 | 32 ft | 17 kts | 180° |
| 2026-05-07 15:40 | 21.30698 | -157.94567 | 31 ft | 16 kts | 162° |
| 2026-05-07 15:40 | 21.30679 | -157.94544 | 32 ft | 0 kts | 93° |
| 2026-05-07 15:41 | 21.30679 | -157.94529 | 32 ft | 16 kts | 91° |
| 2026-05-07 15:41 | 21.30680 | -157.94107 | 35 ft | 96 kts | 89° |
| 2026-05-07 15:41 | 21.30677 | -157.93136 | 26 ft | 162 kts | 90° |
| 2026-05-07 15:41 | 21.30667 | -157.91776 | 177 ft | 192 kts | 88° |
| 2026-05-07 15:42 | 21.30623 | -157.90358 | 829 ft | 190 kts | 97° |
| 2026-05-07 15:42 | 21.30029 | -157.89117 | 1517 ft | 193 kts | 131° |
| 2026-05-07 15:42 | 21.28860 | -157.88456 | 2154 ft | 197 kts | 161° |
| 2026-05-07 15:42 | 21.27491 | -157.88117 | 2687 ft | 202 kts | 164° |
| 2026-05-07 15:43 | 21.26109 | -157.87783 | 3248 ft | 204 kts | 166° |
| 2026-05-07 15:43 | 21.24749 | -157.87417 | 3874 ft | 202 kts | 164° |
| 2026-05-07 15:43 | 21.23433 | -157.86837 | 4217 ft | 213 kts | 141° |
| 2026-05-07 15:43 | 21.22518 | -157.85533 | 4358 ft | 231 kts | 108° |
| 2026-05-07 15:44 | 21.22347 | -157.83789 | 4525 ft | 245 kts | 84° |
| 2026-05-07 15:44 | 21.22545 | -157.81912 | 4655 ft | 262 kts | 83° |
| 2026-05-07 15:44 | 21.22685 | -157.79878 | 4793 ft | 287 kts | 87° |
| 2026-05-07 15:44 | 21.22701 | -157.77706 | 5294 ft | 294 kts | 91° |
| 2026-05-07 15:45 | 21.22598 | -157.75497 | 5922 ft | 299 kts | 94° |
| 2026-05-07 15:45 | 21.22407 | -157.73264 | 6530 ft | 304 kts | 96° |
| 2026-05-07 15:45 | 21.22150 | -157.70998 | 7095 ft | 308 kts | 97° |
| 2026-05-07 15:45 | 21.21858 | -157.68714 | 7747 ft | 311 kts | 98° |
| 2026-05-07 15:46 | 21.21211 | -157.64090 | 9007 ft | 318 kts | 99° |
| 2026-05-07 15:46 | 21.20864 | -157.61730 | 9655 ft | 322 kts | 100° |
| 2026-05-07 15:46 | 21.20505 | -157.59341 | 10154 ft | 332 kts | 100° |
| 2026-05-07 15:47 | 21.20122 | -157.56830 | 10272 ft | 351 kts | 100° |
| 2026-05-07 15:47 | 21.19717 | -157.54188 | 10401 ft | 369 kts | 100° |
| 2026-05-07 15:47 | 21.19294 | -157.51446 | 10879 ft | 375 kts | 100° |
| 2026-05-07 15:47 | 21.18869 | -157.48674 | 11453 ft | 379 kts | 100° |
| 2026-05-07 15:48 | 21.18440 | -157.45883 | 12069 ft | 382 kts | 100° |
| 2026-05-07 15:48 | 21.18003 | -157.43055 | 12627 ft | 386 kts | 99° |
| 2026-05-07 15:48 | 21.17752 | -157.40171 | 13083 ft | 390 kts | 87° |
| 2026-05-07 15:48 | 21.18043 | -157.37315 | 13703 ft | 392 kts | 80° |
| 2026-05-07 15:49 | 21.18527 | -157.34372 | 14136 ft | 399 kts | 79° |
| 2026-05-07 15:49 | 21.19019 | -157.31446 | 14705 ft | 399 kts | 80° |
| 2026-05-07 15:49 | 21.19462 | -157.28541 | 15198 ft | 403 kts | 81° |
| 2026-05-07 15:49 | 21.19861 | -157.25554 | 15712 ft | 405 kts | 82° |
| 2026-05-07 15:50 | 21.20208 | -157.22556 | 16242 ft | 407 kts | 83° |
| 2026-05-07 15:50 | 21.20538 | -157.19526 | 16747 ft | 410 kts | 83° |
| 2026-05-07 15:50 | 21.20867 | -157.16492 | 17299 ft | 411 kts | 83° |
| 2026-05-07 15:50 | 21.21201 | -157.13433 | 17754 ft | 415 kts | 83° |
| 2026-05-07 15:51 | 21.21541 | -157.10358 | 18295 ft | 416 kts | 83° |
| 2026-05-07 15:51 | 21.21887 | -157.07266 | 18705 ft | 420 kts | 83° |
| 2026-05-07 15:51 | 21.22235 | -157.04151 | 19147 ft | 421 kts | 83° |
| 2026-05-07 15:51 | 21.22584 | -157.01023 | 19566 ft | 424 kts | 83° |
| 2026-05-07 15:52 | 21.22935 | -156.97874 | 19982 ft | 426 kts | 83° |
| 2026-05-07 15:52 | 21.23287 | -156.94715 | 20400 ft | 429 kts | 83° |
| 2026-05-07 15:52 | 21.23642 | -156.91530 | 20799 ft | 431 kts | 83° |
| 2026-05-07 15:52 | 21.23993 | -156.88377 | 21213 ft | 433 kts | 83° |
| 2026-05-07 15:53 | 21.24351 | -156.85156 | 21609 ft | 436 kts | 83° |
| 2026-05-07 15:53 | 21.24709 | -156.81920 | 22028 ft | 438 kts | 83° |
| 2026-05-07 15:53 | 21.25068 | -156.78663 | 22373 ft | 442 kts | 83° |
| 2026-05-07 15:53 | 21.25430 | -156.75390 | 22799 ft | 443 kts | 83° |
| 2026-05-07 15:54 | 21.25794 | -156.72096 | 23153 ft | 446 kts | 83° |
| 2026-05-07 15:54 | 21.26160 | -156.68781 | 23556 ft | 449 kts | 83° |
| 2026-05-07 15:54 | 21.26526 | -156.65451 | 23859 ft | 452 kts | 83° |
| 2026-05-07 15:54 | 21.26892 | -156.62098 | 24172 ft | 454 kts | 83° |
| 2026-05-07 15:55 | 21.27261 | -156.58727 | 24476 ft | 456 kts | 83° |
| 2026-05-07 15:55 | 21.27632 | -156.55339 | 24775 ft | 459 kts | 83° |
| 2026-05-07 15:55 | 21.28004 | -156.51936 | 25089 ft | 461 kts | 84° |
| 2026-05-07 15:55 | 21.28378 | -156.48516 | 25406 ft | 463 kts | 83° |
| 2026-05-07 15:56 | 21.28752 | -156.45082 | 25716 ft | 465 kts | 84° |
| 2026-05-07 15:56 | 21.29121 | -156.41671 | 26003 ft | 467 kts | 84° |
| 2026-05-07 15:56 | 21.29491 | -156.38207 | 26314 ft | 469 kts | 84° |
| 2026-05-07 15:56 | 21.29859 | -156.34718 | 26602 ft | 471 kts | 84° |
| 2026-05-07 15:57 | 21.30229 | -156.31219 | 26894 ft | 473 kts | 84° |
| 2026-05-07 15:57 | 21.30602 | -156.27705 | 27168 ft | 475 kts | 84° |
| 2026-05-07 15:57 | 21.30978 | -156.24172 | 27456 ft | 478 kts | 84° |
| 2026-05-07 15:57 | 21.31358 | -156.20623 | 27711 ft | 480 kts | 84° |
| 2026-05-07 15:58 | 21.31739 | -156.17058 | 27983 ft | 483 kts | 84° |
| 2026-05-07 15:58 | 21.32120 | -156.13475 | 28295 ft | 483 kts | 84° |
| 2026-05-07 15:58 | 21.32504 | -156.09888 | 28554 ft | 486 kts | 84° |
| 2026-05-07 15:58 | 21.32888 | -156.06283 | 28825 ft | 488 kts | 84° |
| 2026-05-07 15:59 | 21.33273 | -156.02663 | 29071 ft | 490 kts | 84° |
| 2026-05-07 15:59 | 21.33658 | -155.99025 | 29310 ft | 492 kts | 84° |
| 2026-05-07 15:59 | 21.34043 | -155.95377 | 29568 ft | 493 kts | 84° |
| 2026-05-07 15:59 | 21.34429 | -155.91711 | 29801 ft | 496 kts | 84° |
| 2026-05-07 16:00 | 21.34817 | -155.88029 | 30054 ft | 498 kts | 84° |
| 2026-05-07 16:00 | 21.35204 | -155.84329 | 30288 ft | 500 kts | 84° |
| 2026-05-07 16:00 | 21.35593 | -155.80612 | 30504 ft | 502 kts | 84° |
| 2026-05-07 16:00 | 21.35983 | -155.76881 | 30720 ft | 504 kts | 84° |
| 2026-05-07 16:01 | 21.36373 | -155.73141 | 30930 ft | 505 kts | 84° |
| 2026-05-07 16:01 | 21.36764 | -155.69395 | 31185 ft | 505 kts | 84° |
| 2026-05-07 16:01 | 21.37153 | -155.65652 | 31427 ft | 505 kts | 84° |
| 2026-05-07 16:01 | 21.37543 | -155.61906 | 31671 ft | 505 kts | 84° |
| 2026-05-07 16:02 | 21.37930 | -155.58158 | 31903 ft | 505 kts | 84° |
| 2026-05-07 16:02 | 21.38313 | -155.54432 | 32136 ft | 505 kts | 84° |
| 2026-05-07 16:02 | 21.38691 | -155.50736 | 32371 ft | 505 kts | 84° |
| 2026-05-07 16:02 | 21.39072 | -155.46946 | 32597 ft | 505 kts | 84° |
| 2026-05-07 16:03 | 21.39448 | -155.43198 | 32818 ft | 504 kts | 84° |
| 2026-05-07 16:03 | 21.39824 | -155.39459 | 33024 ft | 505 kts | 84° |
| 2026-05-07 16:03 | 21.40198 | -155.35757 | 33079 ft | 508 kts | 84° |
| 2026-05-07 16:04 | 21.40965 | -155.28184 | 33093 ft | 511 kts | 84° |
| 2026-05-07 16:04 | 21.41732 | -155.20614 | 33094 ft | 510 kts | 84° |
| 2026-05-07 16:05 | 21.42534 | -155.13057 | 33093 ft | 510 kts | 83° |
| 2026-05-07 16:05 | 21.43601 | -155.05530 | 33094 ft | 510 kts | 81° |
| 2026-05-07 16:06 | 21.44763 | -154.98018 | 33099 ft | 510 kts | 81° |
| 2026-05-07 16:06 | 21.45907 | -154.90523 | 33093 ft | 508 kts | 81° |
| 2026-05-07 16:07 | 21.47021 | -154.83076 | 33091 ft | 509 kts | 81° |
| 2026-05-07 16:07 | 21.48133 | -154.75579 | 33093 ft | 509 kts | 81° |
| 2026-05-07 16:08 | 21.49250 | -154.68078 | 33096 ft | 508 kts | 81° |
| 2026-05-07 16:08 | 21.50362 | -154.60581 | 33092 ft | 508 kts | 81° |
| 2026-05-07 16:09 | 21.51468 | -154.53082 | 33092 ft | 509 kts | 81° |
| 2026-05-07 16:09 | 21.52570 | -154.45579 | 33094 ft | 508 kts | 81° |
| 2026-05-07 16:10 | 21.53668 | -154.38076 | 33092 ft | 509 kts | 81° |
| 2026-05-07 16:10 | 21.54765 | -154.30570 | 33091 ft | 509 kts | 81° |
| 2026-05-07 16:11 | 21.55851 | -154.23062 | 33093 ft | 509 kts | 82° |
| 2026-05-07 16:11 | 21.56921 | -154.15600 | 33091 ft | 509 kts | 82° |
| 2026-05-07 16:12 | 21.58003 | -154.08088 | 33090 ft | 509 kts | 82° |
| 2026-05-07 16:12 | 21.59085 | -154.00583 | 33094 ft | 507 kts | 82° |
| 2026-05-07 16:13 | 21.60161 | -153.93105 | 33090 ft | 505 kts | 82° |
| 2026-05-07 16:13 | 21.61233 | -153.85641 | 33090 ft | 506 kts | 82° |
| 2026-05-07 16:14 | 21.62299 | -153.78167 | 33092 ft | 506 kts | 82° |
| 2026-05-07 16:14 | 21.63362 | -153.70693 | 33092 ft | 506 kts | 82° |
| 2026-05-07 16:15 | 21.64421 | -153.63223 | 33095 ft | 505 kts | 82° |
| 2026-05-07 16:15 | 21.65470 | -153.55805 | 33097 ft | 506 kts | 82° |
| 2026-05-07 16:16 | 21.66523 | -153.48338 | 33094 ft | 505 kts | 82° |
| 2026-05-07 16:16 | 21.67574 | -153.40861 | 33094 ft | 506 kts | 82° |
| 2026-05-07 16:17 | 21.68610 | -153.33382 | 33092 ft | 506 kts | 82° |
| 2026-05-07 16:17 | 21.69640 | -153.25914 | 33102 ft | 506 kts | 82° |
| 2026-05-07 16:18 | 21.70502 | -153.19694 | 33094 ft | 506 kts | 82° |
| 2026-05-07 16:18 | 21.71568 | -153.14769 | 33094 ft | 506 kts | 71° |
| 2026-05-07 16:18 | 21.72931 | -153.11285 | 33098 ft | 506 kts | 63° |
| 2026-05-07 16:19 | 21.75793 | -153.05814 | 33090 ft | 505 kts | 59° |
| 2026-05-07 16:19 | 21.79921 | -152.98250 | 33100 ft | 505 kts | 60° |
| 2026-05-07 16:20 | 21.83319 | -152.91639 | 33094 ft | 504 kts | 62° |
| 2026-05-07 16:20 | 21.86107 | -152.86072 | 33102 ft | 505 kts | 62° |
| 2026-05-07 16:21 | 21.89404 | -152.79455 | 33101 ft | 504 kts | 62° |
| 2026-05-07 16:21 | 21.92714 | -152.72817 | 33101 ft | 503 kts | 62° |
| 2026-05-07 16:22 | 21.96026 | -152.66177 | 33099 ft | 503 kts | 62° |
| 2026-05-07 16:22 | 21.99339 | -152.59534 | 33100 ft | 503 kts | 62° |
| 2026-05-07 16:23 | 22.02646 | -152.52892 | 33098 ft | 503 kts | 62° |
| 2026-05-07 16:23 | 22.05946 | -152.46252 | 33100 ft | 502 kts | 62° |
| 2026-05-07 16:24 | 22.09243 | -152.39609 | 33101 ft | 502 kts | 62° |
| 2026-05-07 16:24 | 22.12528 | -152.32965 | 33103 ft | 502 kts | 62° |
| 2026-05-07 16:25 | 22.15806 | -152.26314 | 33110 ft | 503 kts | 62° |
| 2026-05-07 16:25 | 22.19072 | -152.19701 | 33103 ft | 503 kts | 62° |
| 2026-05-07 16:26 | 22.22361 | -152.13040 | 33104 ft | 503 kts | 62° |
| 2026-05-07 16:26 | 22.25647 | -152.06376 | 33105 ft | 503 kts | 62° |
| 2026-05-07 16:27 | 22.28932 | -151.99712 | 33104 ft | 503 kts | 62° |
| 2026-05-07 16:27 | 22.32214 | -151.93044 | 33107 ft | 503 kts | 62° |
| 2026-05-07 16:28 | 22.35486 | -151.86379 | 33104 ft | 502 kts | 62° |
| 2026-05-07 16:28 | 22.38750 | -151.79706 | 33104 ft | 503 kts | 62° |
| 2026-05-07 16:29 | 22.42023 | -151.73023 | 33115 ft | 503 kts | 62° |
| 2026-05-07 16:29 | 22.45291 | -151.66343 | 33114 ft | 503 kts | 62° |
| 2026-05-07 16:30 | 22.48538 | -151.59702 | 33111 ft | 503 kts | 62° |
| 2026-05-07 16:30 | 22.51804 | -151.53014 | 33111 ft | 503 kts | 62° |
| 2026-05-07 16:31 | 22.55068 | -151.46322 | 33109 ft | 503 kts | 62° |
| 2026-05-07 16:31 | 22.58326 | -151.39631 | 33112 ft | 503 kts | 62° |
| 2026-05-07 16:32 | 22.61584 | -151.32931 | 33107 ft | 503 kts | 62° |
| 2026-05-07 16:32 | 22.64832 | -151.26253 | 33113 ft | 503 kts | 62° |
| 2026-05-07 16:33 | 22.68079 | -151.19552 | 33114 ft | 503 kts | 62° |
| 2026-05-07 16:33 | 22.71329 | -151.12843 | 33113 ft | 503 kts | 63° |
| 2026-05-07 16:34 | 22.74565 | -151.06129 | 33115 ft | 503 kts | 63° |
| 2026-05-07 16:34 | 22.77771 | -150.99451 | 33121 ft | 503 kts | 63° |
| 2026-05-07 16:35 | 22.81009 | -150.92732 | 33117 ft | 503 kts | 63° |
| 2026-05-07 16:35 | 22.84246 | -150.86012 | 33121 ft | 503 kts | 63° |
| 2026-05-07 16:36 | 22.87482 | -150.79287 | 33121 ft | 503 kts | 63° |
| 2026-05-07 16:36 | 22.90713 | -150.72562 | 33121 ft | 503 kts | 63° |
| 2026-05-07 16:37 | 22.93945 | -150.65827 | 33119 ft | 503 kts | 63° |
| 2026-05-07 16:37 | 22.97172 | -150.59091 | 33123 ft | 503 kts | 63° |
| 2026-05-07 16:38 | 23.00399 | -150.52345 | 33122 ft | 503 kts | 62° |
| 2026-05-07 16:38 | 23.03604 | -150.45643 | 33118 ft | 503 kts | 63° |
| 2026-05-07 16:39 | 23.06826 | -150.38893 | 33125 ft | 504 kts | 63° |
| 2026-05-07 16:39 | 23.10051 | -150.32127 | 33124 ft | 504 kts | 63° |
| 2026-05-07 16:40 | 23.13265 | -150.25348 | 33122 ft | 505 kts | 63° |
| 2026-05-07 16:40 | 23.16472 | -150.18569 | 33124 ft | 504 kts | 63° |
| 2026-05-07 16:41 | 23.19684 | -150.11789 | 33131 ft | 505 kts | 63° |
| 2026-05-07 16:41 | 23.22901 | -150.05000 | 33132 ft | 505 kts | 63° |
| 2026-05-07 16:42 | 23.26115 | -149.98214 | 33132 ft | 505 kts | 63° |
| 2026-05-07 16:42 | 23.29324 | -149.91423 | 33132 ft | 505 kts | 63° |
| 2026-05-07 16:43 | 23.32530 | -149.84627 | 33134 ft | 505 kts | 63° |
| 2026-05-07 16:43 | 23.35732 | -149.77833 | 33136 ft | 505 kts | 63° |
| 2026-05-07 16:44 | 23.38911 | -149.71077 | 33138 ft | 505 kts | 63° |
| 2026-05-07 16:44 | 23.42104 | -149.64283 | 33138 ft | 504 kts | 63° |
| 2026-05-07 16:45 | 23.45295 | -149.57486 | 33133 ft | 504 kts | 63° |
| 2026-05-07 16:45 | 23.48480 | -149.50685 | 33135 ft | 504 kts | 63° |
| 2026-05-07 16:46 | 23.51651 | -149.43877 | 33140 ft | 504 kts | 63° |
| 2026-05-07 16:46 | 23.54824 | -149.37064 | 33140 ft | 504 kts | 63° |
| 2026-05-07 16:47 | 23.58001 | -149.30247 | 33141 ft | 504 kts | 62° |
| 2026-05-07 16:47 | 23.61172 | -149.23442 | 33140 ft | 504 kts | 63° |
| 2026-05-07 16:48 | 23.64343 | -149.16624 | 33140 ft | 504 kts | 63° |
| 2026-05-07 16:48 | 23.67495 | -149.09845 | 33143 ft | 504 kts | 63° |
| 2026-05-07 16:49 | 23.70660 | -149.03018 | 33145 ft | 504 kts | 63° |
| 2026-05-07 16:49 | 23.73829 | -148.96185 | 33145 ft | 504 kts | 63° |
| 2026-05-07 16:50 | 23.76993 | -148.89346 | 33146 ft | 505 kts | 63° |
| 2026-05-07 16:50 | 23.80152 | -148.82502 | 33146 ft | 505 kts | 63° |
| 2026-05-07 16:51 | 23.83313 | -148.75651 | 33145 ft | 505 kts | 63° |
| 2026-05-07 16:51 | 23.86472 | -148.68796 | 33149 ft | 505 kts | 63° |
| 2026-05-07 16:52 | 23.89592 | -148.61978 | 33149 ft | 505 kts | 63° |
| 2026-05-07 16:52 | 23.92733 | -148.55106 | 33157 ft | 505 kts | 63° |
| 2026-05-07 16:53 | 23.95884 | -148.48228 | 33153 ft | 506 kts | 63° |
| 2026-05-07 16:53 | 23.99035 | -148.41353 | 33154 ft | 506 kts | 63° |
| 2026-05-07 16:54 | 24.02181 | -148.34472 | 33151 ft | 505 kts | 63° |
| 2026-05-07 16:54 | 24.05320 | -148.27597 | 33154 ft | 506 kts | 63° |
| 2026-05-07 16:55 | 24.08460 | -148.20712 | 33154 ft | 506 kts | 63° |
| 2026-05-07 16:55 | 24.11594 | -148.13830 | 33157 ft | 505 kts | 63° |
| 2026-05-07 16:56 | 24.14730 | -148.06932 | 33157 ft | 506 kts | 63° |
| 2026-05-07 16:56 | 24.19429 | -147.96572 | 33158 ft | 506 kts | 63° |
| 2026-05-07 16:57 | 24.22536 | -147.89706 | 33161 ft | 506 kts | 63° |
| 2026-05-07 16:57 | 24.25650 | -147.82803 | 33162 ft | 505 kts | 63° |
| 2026-05-07 16:58 | 24.28759 | -147.75890 | 33170 ft | 506 kts | 63° |
| 2026-05-07 16:58 | 24.31875 | -147.68971 | 33165 ft | 506 kts | 63° |
| 2026-05-07 16:59 | 24.34989 | -147.62046 | 33166 ft | 506 kts | 63° |
| 2026-05-07 16:59 | 24.38099 | -147.55126 | 33165 ft | 506 kts | 63° |
| 2026-05-07 17:00 | 24.41207 | -147.48200 | 33167 ft | 506 kts | 63° |
| 2026-05-07 17:00 | 24.44311 | -147.41276 | 33170 ft | 506 kts | 63° |
| 2026-05-07 17:01 | 24.47411 | -147.34344 | 33166 ft | 505 kts | 63° |
| 2026-05-07 17:01 | 24.50504 | -147.27422 | 33168 ft | 505 kts | 63° |
| 2026-05-07 17:02 | 24.53588 | -147.20512 | 33168 ft | 505 kts | 63° |
| 2026-05-07 17:02 | 24.56673 | -147.13586 | 33170 ft | 505 kts | 63° |
| 2026-05-07 17:03 | 24.59754 | -147.06660 | 33170 ft | 504 kts | 63° |
| 2026-05-07 17:03 | 24.62819 | -146.99728 | 33170 ft | 504 kts | 63° |
| 2026-05-07 17:04 | 24.65883 | -146.92789 | 33168 ft | 506 kts | 63° |
| 2026-05-07 17:04 | 24.68934 | -146.85881 | 33168 ft | 505 kts | 63° |
| 2026-05-07 17:05 | 24.72008 | -146.78924 | 33170 ft | 505 kts | 63° |
| 2026-05-07 17:05 | 24.75078 | -146.71977 | 33173 ft | 505 kts | 63° |
| 2026-05-07 17:06 | 24.78145 | -146.65021 | 33173 ft | 505 kts | 63° |
| 2026-05-07 17:06 | 24.81204 | -146.58059 | 33176 ft | 506 kts | 63° |
| 2026-05-07 17:07 | 24.84269 | -146.51084 | 33173 ft | 506 kts | 63° |
| 2026-05-07 17:07 | 24.87331 | -146.44115 | 33173 ft | 506 kts | 63° |
| 2026-05-07 17:08 | 24.90389 | -146.37136 | 33173 ft | 506 kts | 63° |
| 2026-05-07 17:08 | 24.93439 | -146.30155 | 33176 ft | 506 kts | 63° |
| 2026-05-07 17:09 | 24.96467 | -146.23217 | 33186 ft | 505 kts | 63° |
| 2026-05-07 17:09 | 24.99502 | -146.16220 | 33174 ft | 507 kts | 63° |
| 2026-05-07 17:10 | 25.02541 | -146.09205 | 33181 ft | 507 kts | 63° |
| 2026-05-07 17:10 | 25.05583 | -146.02196 | 33179 ft | 507 kts | 63° |
| 2026-05-07 17:11 | 25.08627 | -145.95179 | 33177 ft | 507 kts | 63° |
| 2026-05-07 17:11 | 25.11666 | -145.88162 | 33182 ft | 507 kts | 63° |
| 2026-05-07 17:12 | 25.14705 | -145.81137 | 33182 ft | 508 kts | 63° |
| 2026-05-07 17:12 | 25.17744 | -145.74102 | 33180 ft | 508 kts | 63° |
| 2026-05-07 17:13 | 25.20777 | -145.67062 | 33180 ft | 507 kts | 63° |
| 2026-05-07 17:13 | 25.23809 | -145.60020 | 33183 ft | 508 kts | 63° |
| 2026-05-07 17:14 | 25.26839 | -145.52971 | 33182 ft | 508 kts | 63° |
| 2026-05-07 17:14 | 25.29851 | -145.45916 | 33185 ft | 507 kts | 63° |
| 2026-05-07 17:15 | 25.32845 | -145.38898 | 33187 ft | 509 kts | 63° |
| 2026-05-07 17:15 | 25.35863 | -145.31831 | 33184 ft | 508 kts | 63° |
| 2026-05-07 17:16 | 25.38882 | -145.24762 | 33189 ft | 508 kts | 63° |
| 2026-05-07 17:16 | 25.41895 | -145.17692 | 33186 ft | 508 kts | 64° |
| 2026-05-07 17:17 | 25.44893 | -145.10642 | 33197 ft | 508 kts | 63° |
| 2026-05-07 17:17 | 25.47905 | -145.03554 | 33190 ft | 509 kts | 63° |
| 2026-05-07 17:18 | 25.50914 | -144.96460 | 33188 ft | 509 kts | 64° |
| 2026-05-07 17:18 | 25.53917 | -144.89366 | 33194 ft | 509 kts | 64° |
| 2026-05-07 17:19 | 25.56916 | -144.82270 | 33194 ft | 509 kts | 64° |
| 2026-05-07 17:19 | 25.59914 | -144.75166 | 33185 ft | 509 kts | 64° |
| 2026-05-07 17:20 | 25.62889 | -144.68096 | 33197 ft | 510 kts | 64° |
| 2026-05-07 17:20 | 25.65387 | -144.62119 | 33196 ft | 510 kts | 64° |
| 2026-05-07 17:21 | 25.68854 | -144.53832 | 33196 ft | 510 kts | 64° |
| 2026-05-07 17:21 | 25.71845 | -144.46697 | 33192 ft | 510 kts | 64° |
| 2026-05-07 17:22 | 25.74343 | -144.40730 | 33201 ft | 509 kts | 64° |
| 2026-05-07 17:22 | 25.77302 | -144.33651 | 33196 ft | 510 kts | 64° |
| 2026-05-07 17:23 | 25.80288 | -144.26496 | 33197 ft | 511 kts | 64° |
| 2026-05-07 17:23 | 25.83265 | -144.19341 | 33202 ft | 510 kts | 64° |
| 2026-05-07 17:24 | 25.86235 | -144.12195 | 33197 ft | 510 kts | 64° |
| 2026-05-07 17:24 | 25.89203 | -144.05046 | 33197 ft | 510 kts | 64° |
| 2026-05-07 17:25 | 25.92170 | -143.97888 | 33202 ft | 511 kts | 64° |
| 2026-05-07 17:25 | 25.95145 | -143.90709 | 33200 ft | 512 kts | 64° |
| 2026-05-07 17:26 | 25.98107 | -143.83526 | 33197 ft | 511 kts | 64° |
| 2026-05-07 17:26 | 26.01026 | -143.76380 | 33196 ft | 511 kts | 64° |
| 2026-05-07 17:27 | 26.03979 | -143.69188 | 33199 ft | 511 kts | 64° |
| 2026-05-07 17:27 | 26.06927 | -143.62012 | 33202 ft | 510 kts | 64° |
| 2026-05-07 17:28 | 26.09874 | -143.54829 | 33201 ft | 510 kts | 64° |
| 2026-05-07 17:28 | 26.12819 | -143.47643 | 33203 ft | 510 kts | 64° |
| 2026-05-07 17:29 | 26.15754 | -143.40461 | 33207 ft | 510 kts | 64° |
| 2026-05-07 17:29 | 26.18687 | -143.33267 | 33209 ft | 510 kts | 64° |
| 2026-05-07 17:30 | 26.21624 | -143.26061 | 33209 ft | 512 kts | 64° |
| 2026-05-07 17:30 | 26.24563 | -143.18839 | 33206 ft | 511 kts | 65° |
| 2026-05-07 17:31 | 26.27476 | -143.11662 | 33210 ft | 511 kts | 65° |
| 2026-05-07 17:31 | 26.30400 | -143.04441 | 33208 ft | 512 kts | 65° |
| 2026-05-07 17:32 | 26.33308 | -142.97229 | 33207 ft | 511 kts | 65° |
| 2026-05-07 17:32 | 26.36211 | -142.89995 | 33211 ft | 512 kts | 65° |
| 2026-05-07 17:33 | 26.39127 | -142.82746 | 33215 ft | 512 kts | 65° |
| 2026-05-07 17:33 | 26.42043 | -142.75503 | 33209 ft | 512 kts | 65° |
| 2026-05-07 17:34 | 26.44950 | -142.68269 | 33212 ft | 511 kts | 65° |
| 2026-05-07 17:34 | 26.47847 | -142.61039 | 33217 ft | 511 kts | 65° |
| 2026-05-07 17:35 | 26.50737 | -142.53824 | 33216 ft | 513 kts | 65° |
| 2026-05-07 17:35 | 26.53638 | -142.46564 | 33217 ft | 511 kts | 65° |
| 2026-05-07 17:36 | 26.56534 | -142.39306 | 33362 ft | 512 kts | 65° |
| 2026-05-07 17:36 | 26.57980 | -142.35675 | 33536 ft | 511 kts | 65° |
| 2026-05-07 17:36 | 26.59423 | -142.32048 | 33720 ft | 511 kts | 65° |
| 2026-05-07 17:37 | 26.60864 | -142.28424 | 33895 ft | 510 kts | 65° |
| 2026-05-07 17:37 | 26.62304 | -142.24799 | 34059 ft | 510 kts | 65° |
| 2026-05-07 17:37 | 26.63742 | -142.21176 | 34215 ft | 510 kts | 65° |
| 2026-05-07 17:37 | 26.65178 | -142.17554 | 34345 ft | 509 kts | 65° |
| 2026-05-07 17:38 | 26.66589 | -142.13982 | 34473 ft | 509 kts | 65° |
| 2026-05-07 17:38 | 26.68013 | -142.10358 | 34604 ft | 509 kts | 65° |
| 2026-05-07 17:38 | 26.69436 | -142.06733 | 34724 ft | 509 kts | 65° |
| 2026-05-07 17:38 | 26.70859 | -142.03116 | 34855 ft | 508 kts | 65° |
| 2026-05-07 17:39 | 26.72282 | -141.99501 | 34988 ft | 507 kts | 65° |
| 2026-05-07 17:39 | 26.73701 | -141.95901 | 35173 ft | 506 kts | 65° |
| 2026-05-07 17:39 | 26.76548 | -141.88678 | 35220 ft | 509 kts | 65° |
| 2026-05-07 17:40 | 26.79402 | -141.81422 | 35221 ft | 508 kts | 65° |
| 2026-05-07 17:40 | 26.82239 | -141.74199 | 35221 ft | 507 kts | 65° |
| 2026-05-07 17:41 | 26.85071 | -141.66967 | 35223 ft | 507 kts | 65° |
| 2026-05-07 17:41 | 26.87902 | -141.59726 | 35228 ft | 507 kts | 65° |
| 2026-05-07 17:42 | 26.90730 | -141.52480 | 35225 ft | 508 kts | 65° |
| 2026-05-07 17:42 | 26.93555 | -141.45236 | 35224 ft | 507 kts | 65° |
| 2026-05-07 17:43 | 26.96375 | -141.37985 | 35228 ft | 508 kts | 65° |
| 2026-05-07 17:43 | 26.99193 | -141.30727 | 35227 ft | 507 kts | 65° |
| 2026-05-07 17:44 | 27.01968 | -141.23516 | 35228 ft | 508 kts | 65° |
| 2026-05-07 17:44 | 27.04767 | -141.16243 | 35226 ft | 508 kts | 65° |
| 2026-05-07 17:45 | 27.07572 | -141.08968 | 35231 ft | 508 kts | 65° |
| 2026-05-07 17:45 | 27.10377 | -141.01695 | 35230 ft | 508 kts | 65° |
| 2026-05-07 17:46 | 27.13180 | -140.94414 | 35230 ft | 508 kts | 65° |
| 2026-05-07 17:46 | 27.15979 | -140.87129 | 35234 ft | 509 kts | 65° |
| 2026-05-07 17:47 | 27.18771 | -140.79843 | 35233 ft | 509 kts | 65° |
| 2026-05-07 17:47 | 27.21561 | -140.72543 | 35232 ft | 508 kts | 65° |
| 2026-05-07 17:48 | 27.24349 | -140.65241 | 35234 ft | 508 kts | 65° |
| 2026-05-07 17:48 | 27.27133 | -140.57943 | 35237 ft | 508 kts | 65° |
| 2026-05-07 17:49 | 27.29893 | -140.50689 | 35236 ft | 508 kts | 65° |
| 2026-05-07 17:49 | 27.32665 | -140.43380 | 35241 ft | 508 kts | 65° |
| 2026-05-07 17:50 | 27.35418 | -140.36058 | 35235 ft | 508 kts | 66° |
| 2026-05-07 17:50 | 27.38170 | -140.28748 | 35240 ft | 507 kts | 65° |
| 2026-05-07 17:51 | 27.40925 | -140.21452 | 35240 ft | 507 kts | 65° |
| 2026-05-07 17:51 | 27.43661 | -140.14202 | 35239 ft | 506 kts | 65° |
| 2026-05-07 17:52 | 27.46401 | -140.06918 | 35242 ft | 505 kts | 66° |
| 2026-05-07 17:52 | 27.49137 | -139.99625 | 35243 ft | 505 kts | 66° |
| 2026-05-07 17:53 | 27.51869 | -139.92342 | 35246 ft | 505 kts | 66° |
| 2026-05-07 17:53 | 27.54597 | -139.85046 | 35251 ft | 505 kts | 66° |
| 2026-05-07 17:54 | 27.57320 | -139.77748 | 35248 ft | 505 kts | 66° |
| 2026-05-07 17:54 | 27.60022 | -139.70499 | 35250 ft | 505 kts | 66° |
| 2026-05-07 17:55 | 27.62737 | -139.63201 | 35248 ft | 505 kts | 66° |
| 2026-05-07 17:55 | 27.65443 | -139.55897 | 35246 ft | 505 kts | 66° |
| 2026-05-07 17:56 | 27.68135 | -139.48570 | 35248 ft | 505 kts | 66° |
| 2026-05-07 17:56 | 27.70830 | -139.41256 | 35251 ft | 505 kts | 66° |
| 2026-05-07 17:57 | 27.73073 | -139.35178 | 35254 ft | 505 kts | 66° |
| 2026-05-07 17:57 | 27.76227 | -139.26622 | 35251 ft | 505 kts | 66° |
| 2026-05-07 17:58 | 27.78916 | -139.19304 | 35254 ft | 505 kts | 66° |
| 2026-05-07 17:58 | 27.81606 | -139.11971 | 35250 ft | 505 kts | 66° |
| 2026-05-07 17:59 | 27.84293 | -139.04639 | 35255 ft | 505 kts | 66° |
| 2026-05-07 17:59 | 27.86973 | -138.97318 | 35259 ft | 504 kts | 66° |
| 2026-05-07 18:00 | 27.89649 | -138.89981 | 35260 ft | 505 kts | 66° |
| 2026-05-07 18:00 | 27.92294 | -138.82684 | 35258 ft | 505 kts | 66° |
| 2026-05-07 18:01 | 27.94949 | -138.75328 | 35260 ft | 505 kts | 66° |
| 2026-05-07 18:01 | 27.97611 | -138.67972 | 35259 ft | 505 kts | 66° |
| 2026-05-07 18:02 | 28.01598 | -138.56952 | 35262 ft | 504 kts | 66° |
| 2026-05-07 18:03 | 28.04250 | -138.49603 | 35258 ft | 505 kts | 66° |
| 2026-05-07 18:03 | 28.06902 | -138.42244 | 35259 ft | 505 kts | 66° |
| 2026-05-07 18:04 | 28.09544 | -138.34890 | 35262 ft | 504 kts | 66° |
| 2026-05-07 18:04 | 28.12184 | -138.27528 | 35266 ft | 504 kts | 66° |
| 2026-05-07 18:05 | 28.14802 | -138.20218 | 35261 ft | 504 kts | 66° |
| 2026-05-07 18:05 | 28.17430 | -138.12857 | 35265 ft | 504 kts | 66° |
| 2026-05-07 18:06 | 28.20056 | -138.05493 | 35270 ft | 504 kts | 66° |
| 2026-05-07 18:06 | 28.22676 | -137.98122 | 35267 ft | 504 kts | 67° |
| 2026-05-07 18:07 | 28.25276 | -137.90742 | 35263 ft | 503 kts | 67° |
| 2026-05-07 18:07 | 28.27877 | -137.83370 | 35262 ft | 503 kts | 67° |
| 2026-05-07 18:08 | 28.30481 | -137.76000 | 35278 ft | 503 kts | 66° |
| 2026-05-07 18:08 | 28.33087 | -137.68626 | 35276 ft | 503 kts | 67° |
| 2026-05-07 18:09 | 28.35667 | -137.61303 | 35278 ft | 503 kts | 67° |
| 2026-05-07 18:09 | 28.38261 | -137.53922 | 35276 ft | 502 kts | 67° |
| 2026-05-07 18:10 | 28.40847 | -137.46553 | 35266 ft | 503 kts | 67° |
| 2026-05-07 18:10 | 28.43430 | -137.39174 | 35278 ft | 503 kts | 67° |
| 2026-05-07 18:11 | 28.46010 | -137.31790 | 35266 ft | 502 kts | 67° |
| 2026-05-07 18:11 | 28.48581 | -137.24419 | 35283 ft | 502 kts | 67° |
| 2026-05-07 18:12 | 28.51147 | -137.17040 | 35285 ft | 502 kts | 67° |
| 2026-05-07 18:12 | 28.53700 | -137.09672 | 35270 ft | 500 kts | 67° |
| 2026-05-07 18:13 | 28.56231 | -137.02308 | 35275 ft | 500 kts | 67° |
| 2026-05-07 18:13 | 28.58769 | -136.94943 | 35272 ft | 500 kts | 67° |
| 2026-05-07 18:14 | 28.61307 | -136.87596 | 35286 ft | 498 kts | 67° |
| 2026-05-07 18:14 | 28.63820 | -136.80295 | 35274 ft | 499 kts | 67° |
| 2026-05-07 18:15 | 28.66348 | -136.72936 | 35273 ft | 499 kts | 67° |
| 2026-05-07 18:15 | 28.68876 | -136.65574 | 35286 ft | 499 kts | 67° |
| 2026-05-07 18:16 | 28.71399 | -136.58204 | 35276 ft | 500 kts | 67° |
| 2026-05-07 18:16 | 28.73923 | -136.50816 | 35275 ft | 499 kts | 67° |
| 2026-05-07 18:17 | 28.76431 | -136.43451 | 35279 ft | 498 kts | 67° |
| 2026-05-07 18:17 | 28.78934 | -136.36094 | 35277 ft | 499 kts | 67° |
| 2026-05-07 18:18 | 28.81435 | -136.28730 | 35282 ft | 498 kts | 67° |
| 2026-05-07 18:18 | 28.83926 | -136.21365 | 35281 ft | 498 kts | 68° |
| 2026-05-07 18:19 | 28.86385 | -136.14029 | 35281 ft | 498 kts | 68° |
| 2026-05-07 18:19 | 28.88860 | -136.06661 | 35285 ft | 497 kts | 67° |
| 2026-05-07 18:20 | 28.91338 | -135.99295 | 35286 ft | 498 kts | 68° |
| 2026-05-07 18:20 | 28.93820 | -135.91909 | 35288 ft | 497 kts | 68° |
| 2026-05-07 18:21 | 28.96291 | -135.84542 | 35284 ft | 497 kts | 68° |
| 2026-05-07 18:21 | 28.98759 | -135.77166 | 35285 ft | 497 kts | 68° |
| 2026-05-07 18:22 | 29.01223 | -135.69795 | 35289 ft | 497 kts | 68° |
| 2026-05-07 18:22 | 29.03665 | -135.62458 | 35287 ft | 497 kts | 68° |
| 2026-05-07 18:23 | 29.06118 | -135.55073 | 35288 ft | 497 kts | 68° |
| 2026-05-07 18:23 | 29.08563 | -135.47707 | 35290 ft | 495 kts | 68° |
| 2026-05-07 18:24 | 29.11004 | -135.40335 | 35290 ft | 497 kts | 68° |
| 2026-05-07 18:24 | 29.13434 | -135.32956 | 35290 ft | 495 kts | 68° |
| 2026-05-07 18:25 | 29.15837 | -135.25597 | 35284 ft | 494 kts | 68° |
| 2026-05-07 18:25 | 29.18249 | -135.18239 | 35290 ft | 494 kts | 68° |
| 2026-05-07 18:26 | 29.20253 | -135.12125 | 35293 ft | 493 kts | 68° |
| 2026-05-07 18:26 | 29.23051 | -135.03581 | 35288 ft | 493 kts | 68° |
| 2026-05-07 18:27 | 29.25455 | -134.96229 | 35291 ft | 493 kts | 68° |
| 2026-05-07 18:27 | 29.27461 | -134.90077 | 35291 ft | 492 kts | 68° |
| 2026-05-07 18:28 | 29.29848 | -134.82740 | 35289 ft | 492 kts | 68° |
| 2026-05-07 18:28 | 29.32220 | -134.75446 | 35292 ft | 491 kts | 68° |
| 2026-05-07 18:29 | 29.34601 | -134.68101 | 35290 ft | 492 kts | 68° |
| 2026-05-07 18:29 | 29.36981 | -134.60743 | 35298 ft | 492 kts | 68° |
| 2026-05-07 18:30 | 29.39349 | -134.53403 | 35292 ft | 490 kts | 68° |
| 2026-05-07 18:30 | 29.41710 | -134.46068 | 35290 ft | 490 kts | 68° |
| 2026-05-07 18:31 | 29.44050 | -134.38728 | 35293 ft | 490 kts | 68° |
| 2026-05-07 18:31 | 29.46385 | -134.31390 | 35294 ft | 489 kts | 68° |
| 2026-05-07 18:32 | 29.48729 | -134.24056 | 35295 ft | 489 kts | 68° |
| 2026-05-07 18:32 | 29.51049 | -134.16788 | 35300 ft | 489 kts | 68° |
| 2026-05-07 18:33 | 29.53382 | -134.09460 | 35301 ft | 489 kts | 68° |
| 2026-05-07 18:33 | 29.55714 | -134.02124 | 35303 ft | 489 kts | 68° |
| 2026-05-07 18:34 | 29.58037 | -133.94802 | 35301 ft | 487 kts | 68° |
| 2026-05-07 18:34 | 29.60350 | -133.87486 | 35302 ft | 487 kts | 68° |
| 2026-05-07 18:35 | 29.62664 | -133.80158 | 35304 ft | 487 kts | 68° |
| 2026-05-07 18:35 | 29.64968 | -133.72849 | 35307 ft | 486 kts | 68° |
| 2026-05-07 18:36 | 29.67267 | -133.65530 | 35302 ft | 487 kts | 68° |
| 2026-05-07 18:36 | 29.69549 | -133.58256 | 35304 ft | 486 kts | 68° |
| 2026-05-07 18:37 | 29.71828 | -133.50932 | 35304 ft | 486 kts | 68° |
| 2026-05-07 18:37 | 29.74096 | -133.43605 | 35302 ft | 486 kts | 68° |
| 2026-05-07 18:38 | 29.76372 | -133.36279 | 35306 ft | 485 kts | 68° |
| 2026-05-07 18:38 | 29.78643 | -133.28975 | 35306 ft | 485 kts | 68° |
| 2026-05-07 18:39 | 29.80912 | -133.21668 | 35311 ft | 485 kts | 68° |
| 2026-05-07 18:39 | 29.83173 | -133.14361 | 35306 ft | 484 kts | 68° |
| 2026-05-07 18:40 | 29.85429 | -133.07059 | 35304 ft | 484 kts | 68° |
| 2026-05-07 18:40 | 29.87677 | -132.99754 | 35310 ft | 484 kts | 68° |
| 2026-05-07 18:41 | 29.89921 | -132.92449 | 35305 ft | 483 kts | 68° |
| 2026-05-07 18:41 | 29.92162 | -132.85142 | 35306 ft | 484 kts | 68° |
| 2026-05-07 18:42 | 29.94386 | -132.77878 | 35304 ft | 483 kts | 68° |
| 2026-05-07 18:42 | 29.96616 | -132.70564 | 35306 ft | 484 kts | 68° |
| 2026-05-07 18:43 | 29.98844 | -132.63242 | 35307 ft | 484 kts | 68° |
| 2026-05-07 18:43 | 30.01049 | -132.55912 | 35307 ft | 483 kts | 68° |
| 2026-05-07 18:44 | 30.03257 | -132.48592 | 35307 ft | 483 kts | 68° |
| 2026-05-07 18:44 | 30.05470 | -132.41277 | 35306 ft | 483 kts | 68° |
| 2026-05-07 18:45 | 30.07679 | -132.33961 | 35307 ft | 482 kts | 68° |
| 2026-05-07 18:45 | 30.09881 | -132.26651 | 35309 ft | 482 kts | 68° |
| 2026-05-07 18:46 | 30.12080 | -132.19336 | 35315 ft | 482 kts | 67° |
| 2026-05-07 18:46 | 30.14275 | -132.12018 | 35309 ft | 481 kts | 68° |
| 2026-05-07 18:47 | 30.16461 | -132.04706 | 35306 ft | 482 kts | 68° |
| 2026-05-07 18:47 | 30.18642 | -131.97400 | 35309 ft | 481 kts | 68° |
| 2026-05-07 18:48 | 30.20806 | -131.90132 | 35308 ft | 481 kts | 68° |
| 2026-05-07 18:48 | 30.22980 | -131.82811 | 35310 ft | 482 kts | 68° |
| 2026-05-07 18:49 | 30.25153 | -131.75484 | 35311 ft | 482 kts | 68° |
| 2026-05-07 18:49 | 30.27299 | -131.68153 | 35312 ft | 481 kts | 68° |
| 2026-05-07 18:50 | 30.29469 | -131.60831 | 35312 ft | 481 kts | 68° |
| 2026-05-07 18:50 | 30.31635 | -131.53510 | 35312 ft | 481 kts | 68° |
| 2026-05-07 18:51 | 30.33787 | -131.46173 | 35311 ft | 481 kts | 68° |
| 2026-05-07 18:51 | 30.35916 | -131.38885 | 35310 ft | 481 kts | 68° |
| 2026-05-07 18:52 | 30.38057 | -131.31545 | 35311 ft | 481 kts | 68° |
| 2026-05-07 18:52 | 30.40197 | -131.24186 | 35309 ft | 482 kts | 68° |
| 2026-05-07 18:53 | 30.42331 | -131.16827 | 35308 ft | 482 kts | 68° |
| 2026-05-07 18:53 | 30.44463 | -131.09465 | 35309 ft | 482 kts | 68° |
| 2026-05-07 18:54 | 30.46595 | -131.02098 | 35309 ft | 482 kts | 68° |
| 2026-05-07 18:54 | 30.48717 | -130.94729 | 35308 ft | 482 kts | 68° |
| 2026-05-07 18:55 | 30.50827 | -130.87347 | 35310 ft | 482 kts | 69° |
| 2026-05-07 18:55 | 30.52924 | -130.79964 | 35309 ft | 482 kts | 68° |
| 2026-05-07 18:56 | 30.55028 | -130.72575 | 35306 ft | 482 kts | 68° |
| 2026-05-07 18:56 | 30.57118 | -130.65235 | 35307 ft | 482 kts | 68° |
| 2026-05-07 18:57 | 30.59234 | -130.57793 | 35305 ft | 482 kts | 68° |
| 2026-05-07 18:57 | 30.61316 | -130.50440 | 35306 ft | 483 kts | 69° |
| 2026-05-07 18:58 | 30.63408 | -130.43039 | 35307 ft | 482 kts | 69° |
| 2026-05-07 18:58 | 30.65497 | -130.35639 | 35306 ft | 482 kts | 69° |
| 2026-05-07 18:59 | 30.67581 | -130.28237 | 35306 ft | 482 kts | 69° |
| 2026-05-07 18:59 | 30.69661 | -130.20827 | 35307 ft | 482 kts | 69° |
| 2026-05-07 19:00 | 30.71736 | -130.13421 | 35307 ft | 482 kts | 69° |
| 2026-05-07 19:00 | 30.73809 | -130.06012 | 35308 ft | 482 kts | 69° |
| 2026-05-07 19:01 | 30.75870 | -129.98596 | 35297 ft | 482 kts | 69° |
| 2026-05-07 19:01 | 30.77902 | -129.91188 | 35310 ft | 481 kts | 69° |
| 2026-05-07 19:02 | 30.79943 | -129.83782 | 35311 ft | 481 kts | 69° |
| 2026-05-07 19:02 | 30.81973 | -129.76440 | 35303 ft | 480 kts | 69° |
| 2026-05-07 19:03 | 30.84015 | -129.69041 | 35306 ft | 480 kts | 69° |
| 2026-05-07 19:03 | 30.86051 | -129.61645 | 35296 ft | 480 kts | 69° |
| 2026-05-07 19:04 | 30.88082 | -129.54246 | 35308 ft | 479 kts | 69° |
| 2026-05-07 19:04 | 30.90105 | -129.46858 | 35303 ft | 479 kts | 69° |
| 2026-05-07 19:05 | 30.92121 | -129.39476 | 35304 ft | 479 kts | 69° |
| 2026-05-07 19:05 | 30.94130 | -129.32084 | 35306 ft | 479 kts | 69° |
| 2026-05-07 19:06 | 30.96141 | -129.24698 | 35296 ft | 478 kts | 69° |
| 2026-05-07 19:06 | 30.99131 | -129.13665 | 35304 ft | 478 kts | 69° |
| 2026-05-07 19:07 | 31.01127 | -129.06268 | 35298 ft | 478 kts | 69° |
| 2026-05-07 19:07 | 31.03096 | -128.98865 | 35298 ft | 478 kts | 69° |
| 2026-05-07 19:08 | 31.05071 | -128.91466 | 35301 ft | 478 kts | 69° |
| 2026-05-07 19:08 | 31.07055 | -128.84058 | 35301 ft | 478 kts | 69° |
| 2026-05-07 19:09 | 31.09034 | -128.76656 | 35298 ft | 478 kts | 69° |
| 2026-05-07 19:09 | 31.11011 | -128.69245 | 35295 ft | 478 kts | 69° |
| 2026-05-07 19:10 | 31.12981 | -128.61831 | 35296 ft | 478 kts | 69° |
| 2026-05-07 19:10 | 31.14947 | -128.54421 | 35292 ft | 478 kts | 69° |
| 2026-05-07 19:11 | 31.16911 | -128.47003 | 35291 ft | 478 kts | 69° |
| 2026-05-07 19:11 | 31.18856 | -128.39635 | 35290 ft | 478 kts | 69° |
| 2026-05-07 19:12 | 31.20811 | -128.32207 | 35286 ft | 478 kts | 69° |
| 2026-05-07 19:12 | 31.22759 | -128.24786 | 35290 ft | 479 kts | 69° |
| 2026-05-07 19:13 | 31.24707 | -128.17345 | 35298 ft | 478 kts | 69° |
| 2026-05-07 19:13 | 31.26632 | -128.09915 | 35290 ft | 478 kts | 70° |
| 2026-05-07 19:14 | 31.28547 | -128.02475 | 35287 ft | 478 kts | 70° |
| 2026-05-07 19:14 | 31.30474 | -127.95038 | 35293 ft | 478 kts | 69° |
| 2026-05-07 19:15 | 31.32398 | -127.87612 | 35289 ft | 476 kts | 69° |
| 2026-05-07 19:15 | 31.34313 | -127.80196 | 35288 ft | 477 kts | 69° |
| 2026-05-07 19:16 | 31.36227 | -127.72770 | 35284 ft | 477 kts | 69° |
| 2026-05-07 19:16 | 31.38139 | -127.65347 | 35289 ft | 476 kts | 69° |
| 2026-05-07 19:17 | 31.40026 | -127.57996 | 35284 ft | 476 kts | 69° |
| 2026-05-07 19:17 | 31.41925 | -127.50568 | 35283 ft | 476 kts | 70° |
| 2026-05-07 19:18 | 31.43818 | -127.43136 | 35283 ft | 477 kts | 70° |
| 2026-05-07 19:18 | 31.45712 | -127.35690 | 35282 ft | 478 kts | 70° |
| 2026-05-07 19:19 | 31.47603 | -127.28233 | 35274 ft | 477 kts | 70° |
| 2026-05-07 19:19 | 31.49487 | -127.20783 | 35274 ft | 478 kts | 70° |
| 2026-05-07 19:20 | 31.51352 | -127.13291 | 35277 ft | 479 kts | 71° |
| 2026-05-07 19:20 | 31.53225 | -127.05797 | 35274 ft | 479 kts | 70° |
| 2026-05-07 19:21 | 31.55089 | -126.98355 | 35277 ft | 479 kts | 71° |
| 2026-05-07 19:21 | 31.56971 | -126.90834 | 35272 ft | 482 kts | 71° |
| 2026-05-07 19:22 | 31.58852 | -126.83296 | 35275 ft | 481 kts | 71° |
| 2026-05-07 19:22 | 31.60728 | -126.75760 | 35272 ft | 481 kts | 71° |
| 2026-05-07 19:23 | 31.62603 | -126.68201 | 35270 ft | 484 kts | 72° |
| 2026-05-07 19:23 | 31.64481 | -126.60611 | 35270 ft | 484 kts | 72° |
| 2026-05-07 19:24 | 31.66355 | -126.53017 | 35267 ft | 484 kts | 72° |
| 2026-05-07 19:24 | 31.68222 | -126.45419 | 35268 ft | 485 kts | 72° |
| 2026-05-07 19:25 | 31.70094 | -126.37792 | 35260 ft | 486 kts | 72° |
| 2026-05-07 19:25 | 31.71950 | -126.30212 | 35262 ft | 486 kts | 72° |
| 2026-05-07 19:26 | 31.73797 | -126.22577 | 35261 ft | 487 kts | 72° |
| 2026-05-07 19:26 | 31.75641 | -126.14908 | 35257 ft | 488 kts | 72° |
| 2026-05-07 19:27 | 31.77496 | -126.07234 | 35257 ft | 488 kts | 73° |
| 2026-05-07 19:27 | 31.79352 | -125.99562 | 35257 ft | 488 kts | 73° |
| 2026-05-07 19:28 | 31.81205 | -125.91887 | 35258 ft | 488 kts | 73° |
| 2026-05-07 19:28 | 31.82741 | -125.85501 | 35258 ft | 488 kts | 73° |
| 2026-05-07 19:29 | 31.84583 | -125.77818 | 35254 ft | 488 kts | 72° |
| 2026-05-07 19:29 | 31.86422 | -125.70132 | 35256 ft | 489 kts | 73° |
| 2026-05-07 19:30 | 31.88262 | -125.62419 | 35255 ft | 489 kts | 73° |
| 2026-05-07 19:30 | 31.90097 | -125.54713 | 35252 ft | 489 kts | 73° |
| 2026-05-07 19:31 | 31.91912 | -125.47049 | 35251 ft | 490 kts | 73° |
| 2026-05-07 19:31 | 31.93739 | -125.39312 | 35246 ft | 490 kts | 73° |
| 2026-05-07 19:32 | 31.95555 | -125.31587 | 35248 ft | 491 kts | 73° |
| 2026-05-07 19:32 | 31.97356 | -125.23833 | 35247 ft | 491 kts | 74° |
| 2026-05-07 19:33 | 31.99162 | -125.16078 | 35244 ft | 490 kts | 73° |
| 2026-05-07 19:33 | 32.00966 | -125.08332 | 35241 ft | 490 kts | 74° |
| 2026-05-07 19:34 | 32.02771 | -125.00584 | 35241 ft | 490 kts | 74° |
| 2026-05-07 19:34 | 32.04570 | -124.92839 | 35243 ft | 490 kts | 74° |
| 2026-05-07 19:35 | 32.06364 | -124.85090 | 35238 ft | 490 kts | 74° |
| 2026-05-07 19:35 | 32.08151 | -124.77344 | 35240 ft | 490 kts | 74° |
| 2026-05-07 19:36 | 32.09922 | -124.69651 | 35229 ft | 489 kts | 74° |
| 2026-05-07 19:36 | 32.11700 | -124.61903 | 35232 ft | 489 kts | 74° |
| 2026-05-07 19:37 | 32.13471 | -124.54153 | 35238 ft | 489 kts | 74° |
| 2026-05-07 19:37 | 32.15237 | -124.46407 | 35233 ft | 489 kts | 74° |
| 2026-05-07 19:38 | 32.16997 | -124.38661 | 35232 ft | 488 kts | 74° |
| 2026-05-07 19:38 | 32.18730 | -124.30911 | 35226 ft | 489 kts | 75° |
| 2026-05-07 19:39 | 32.20463 | -124.23155 | 35227 ft | 489 kts | 75° |
| 2026-05-07 19:39 | 32.22196 | -124.15448 | 35228 ft | 488 kts | 75° |
| 2026-05-07 19:40 | 32.23938 | -124.07689 | 35224 ft | 489 kts | 75° |
| 2026-05-07 19:40 | 32.25675 | -123.99928 | 35220 ft | 489 kts | 74° |
| 2026-05-07 19:41 | 32.27408 | -123.92162 | 35224 ft | 489 kts | 75° |
| 2026-05-07 19:41 | 32.29135 | -123.84399 | 35221 ft | 489 kts | 75° |
| 2026-05-07 19:42 | 32.30854 | -123.76634 | 35220 ft | 489 kts | 74° |
| 2026-05-07 19:42 | 32.32575 | -123.68855 | 35221 ft | 489 kts | 74° |
| 2026-05-07 19:43 | 32.34290 | -123.61077 | 35213 ft | 488 kts | 75° |
| 2026-05-07 19:43 | 32.35998 | -123.53309 | 35214 ft | 488 kts | 75° |
| 2026-05-07 19:44 | 32.37644 | -123.45512 | 35212 ft | 489 kts | 76° |
| 2026-05-07 19:44 | 32.39205 | -123.37706 | 35214 ft | 487 kts | 76° |
| 2026-05-07 19:45 | 32.40756 | -123.29956 | 35208 ft | 487 kts | 76° |
| 2026-05-07 19:45 | 32.42324 | -123.22150 | 35207 ft | 487 kts | 76° |
| 2026-05-07 19:46 | 32.43889 | -123.14349 | 35211 ft | 487 kts | 75° |
| 2026-05-07 19:46 | 32.45451 | -123.06547 | 35206 ft | 487 kts | 75° |
| 2026-05-07 19:47 | 32.47037 | -122.98769 | 35206 ft | 487 kts | 75° |
| 2026-05-07 19:47 | 32.48786 | -122.91019 | 35197 ft | 487 kts | 73° |
| 2026-05-07 19:48 | 32.50584 | -122.83285 | 35200 ft | 486 kts | 73° |
| 2026-05-07 19:48 | 32.52373 | -122.75557 | 35197 ft | 487 kts | 73° |
| 2026-05-07 19:49 | 32.54147 | -122.67827 | 35198 ft | 487 kts | 73° |
| 2026-05-07 19:49 | 32.55901 | -122.60137 | 35195 ft | 487 kts | 73° |
| 2026-05-07 19:50 | 32.57664 | -122.52395 | 35192 ft | 487 kts | 73° |
| 2026-05-07 19:50 | 32.59425 | -122.44642 | 35189 ft | 486 kts | 73° |
| 2026-05-07 19:51 | 32.61181 | -122.36893 | 35187 ft | 487 kts | 74° |
| 2026-05-07 19:51 | 32.62937 | -122.29134 | 35184 ft | 487 kts | 74° |
| 2026-05-07 19:52 | 32.64681 | -122.21373 | 35184 ft | 487 kts | 73° |
| 2026-05-07 19:52 | 32.66418 | -122.13619 | 35184 ft | 486 kts | 73° |
| 2026-05-07 19:53 | 32.68152 | -122.05851 | 35182 ft | 487 kts | 72° |
| 2026-05-07 19:53 | 32.69787 | -121.98040 | 35179 ft | 488 kts | 76° |
| 2026-05-07 19:54 | 32.71094 | -121.90122 | 35175 ft | 489 kts | 78° |
| 2026-05-07 19:54 | 32.72318 | -121.82238 | 35171 ft | 489 kts | 78° |
| 2026-05-07 19:55 | 32.73563 | -121.74312 | 35170 ft | 488 kts | 77° |
| 2026-05-07 19:55 | 32.74820 | -121.66382 | 35170 ft | 488 kts | 77° |
| 2026-05-07 19:56 | 32.76075 | -121.58456 | 35168 ft | 488 kts | 77° |
| 2026-05-07 19:56 | 32.77318 | -121.50543 | 35168 ft | 488 kts | 77° |
| 2026-05-07 19:57 | 32.78562 | -121.42617 | 35163 ft | 487 kts | 77° |
| 2026-05-07 19:57 | 32.79799 | -121.34696 | 35160 ft | 488 kts | 77° |
| 2026-05-07 19:58 | 32.81030 | -121.26775 | 35153 ft | 488 kts | 77° |
| 2026-05-07 19:58 | 32.82257 | -121.18845 | 35155 ft | 487 kts | 77° |
| 2026-05-07 19:59 | 32.83477 | -121.10922 | 35153 ft | 487 kts | 77° |
| 2026-05-07 19:59 | 32.84693 | -121.02995 | 35151 ft | 487 kts | 77° |
| 2026-05-07 20:00 | 32.85880 | -120.95062 | 35155 ft | 487 kts | 77° |
| 2026-05-07 20:00 | 32.87062 | -120.87187 | 35148 ft | 487 kts | 77° |
| 2026-05-07 20:01 | 32.88262 | -120.79260 | 35148 ft | 487 kts | 77° |
| 2026-05-07 20:01 | 32.89458 | -120.71337 | 35140 ft | 487 kts | 77° |
| 2026-05-07 20:02 | 32.90647 | -120.63426 | 35138 ft | 487 kts | 77° |
| 2026-05-07 20:02 | 32.91835 | -120.55483 | 35142 ft | 487 kts | 77° |
| 2026-05-07 20:03 | 32.93014 | -120.47549 | 35134 ft | 487 kts | 77° |
| 2026-05-07 20:03 | 32.94187 | -120.39616 | 35139 ft | 487 kts | 77° |
| 2026-05-07 20:04 | 32.95358 | -120.31674 | 35130 ft | 487 kts | 77° |
| 2026-05-07 20:04 | 32.96511 | -120.23782 | 35127 ft | 487 kts | 77° |
| 2026-05-07 20:05 | 32.97670 | -120.15840 | 35119 ft | 487 kts | 77° |
| 2026-05-07 20:05 | 32.98829 | -120.07892 | 35123 ft | 486 kts | 76° |
| 2026-05-07 20:06 | 32.99399 | -120.03920 | 34951 ft | 486 kts | 77° |
| 2026-05-07 20:06 | 32.99956 | -119.99968 | 34738 ft | 482 kts | 77° |
| 2026-05-07 20:06 | 33.00512 | -119.96025 | 34386 ft | 483 kts | 77° |
| 2026-05-07 20:06 | 33.01069 | -119.92086 | 33892 ft | 483 kts | 77° |
| 2026-05-07 20:07 | 33.01632 | -119.88145 | 33314 ft | 482 kts | 77° |
| 2026-05-07 20:07 | 33.02196 | -119.84205 | 32773 ft | 482 kts | 77° |
| 2026-05-07 20:07 | 33.02759 | -119.80261 | 32241 ft | 484 kts | 77° |
| 2026-05-07 20:07 | 33.03324 | -119.76304 | 31711 ft | 485 kts | 77° |
| 2026-05-07 20:08 | 33.03887 | -119.72341 | 31168 ft | 486 kts | 78° |
| 2026-05-07 20:08 | 33.04454 | -119.68360 | 30604 ft | 488 kts | 78° |
| 2026-05-07 20:08 | 33.05017 | -119.64372 | 29940 ft | 489 kts | 78° |
| 2026-05-07 20:08 | 33.05580 | -119.60373 | 29256 ft | 490 kts | 78° |
| 2026-05-07 20:09 | 33.06145 | -119.56362 | 28605 ft | 491 kts | 78° |
| 2026-05-07 20:09 | 33.06708 | -119.52352 | 27994 ft | 491 kts | 78° |
| 2026-05-07 20:09 | 33.07265 | -119.48386 | 27373 ft | 491 kts | 78° |
| 2026-05-07 20:10 | 33.08380 | -119.40400 | 26151 ft | 484 kts | 78° |
| 2026-05-07 20:10 | 33.08928 | -119.36460 | 25547 ft | 479 kts | 79° |
| 2026-05-07 20:10 | 33.09467 | -119.32563 | 24956 ft | 474 kts | 79° |
| 2026-05-07 20:10 | 33.10001 | -119.28701 | 24367 ft | 469 kts | 79° |
| 2026-05-07 20:11 | 33.10529 | -119.24879 | 23776 ft | 465 kts | 79° |
| 2026-05-07 20:11 | 33.11051 | -119.21093 | 23118 ft | 461 kts | 79° |
| 2026-05-07 20:11 | 33.11565 | -119.17341 | 22503 ft | 456 kts | 79° |
| 2026-05-07 20:11 | 33.12074 | -119.13625 | 21916 ft | 452 kts | 79° |
| 2026-05-07 20:12 | 33.12578 | -119.09949 | 21348 ft | 447 kts | 79° |
| 2026-05-07 20:12 | 33.13071 | -119.06306 | 20787 ft | 443 kts | 79° |
| 2026-05-07 20:12 | 33.13550 | -119.02702 | 20232 ft | 438 kts | 79° |
| 2026-05-07 20:12 | 33.14024 | -118.99129 | 19672 ft | 434 kts | 79° |
| 2026-05-07 20:13 | 33.14497 | -118.95583 | 19143 ft | 430 kts | 79° |
| 2026-05-07 20:13 | 33.14966 | -118.92083 | 18576 ft | 426 kts | 79° |
| 2026-05-07 20:13 | 33.15432 | -118.88618 | 17976 ft | 420 kts | 79° |
| 2026-05-07 20:13 | 33.15893 | -118.85195 | 17423 ft | 416 kts | 79° |
| 2026-05-07 20:14 | 33.16348 | -118.81811 | 17051 ft | 412 kts | 79° |
| 2026-05-07 20:14 | 33.16801 | -118.78437 | 16662 ft | 411 kts | 79° |
| 2026-05-07 20:14 | 33.17249 | -118.75085 | 16358 ft | 404 kts | 79° |
| 2026-05-07 20:14 | 33.17672 | -118.71908 | 16187 ft | 381 kts | 79° |
| 2026-05-07 20:15 | 33.18138 | -118.68904 | 16057 ft | 354 kts | 72° |
| 2026-05-07 20:15 | 33.19145 | -118.66307 | 16039 ft | 343 kts | 56° |
| 2026-05-07 20:15 | 33.20567 | -118.64030 | 16038 ft | 341 kts | 50° |
| 2026-05-07 20:15 | 33.22103 | -118.61876 | 16038 ft | 341 kts | 49° |
| 2026-05-07 20:16 | 33.23665 | -118.59745 | 16038 ft | 341 kts | 49° |
| 2026-05-07 20:16 | 33.25222 | -118.57609 | 16041 ft | 341 kts | 49° |
| 2026-05-07 20:16 | 33.26771 | -118.55461 | 16037 ft | 341 kts | 49° |
| 2026-05-07 20:16 | 33.28313 | -118.53306 | 16038 ft | 341 kts | 50° |
| 2026-05-07 20:17 | 33.29848 | -118.51143 | 16041 ft | 341 kts | 50° |
| 2026-05-07 20:17 | 33.31372 | -118.48988 | 16044 ft | 341 kts | 50° |
| 2026-05-07 20:17 | 33.32837 | -118.46762 | 16045 ft | 341 kts | 56° |
| 2026-05-07 20:17 | 33.33890 | -118.44225 | 16021 ft | 342 kts | 72° |
| 2026-05-07 20:18 | 33.34237 | -118.41417 | 15956 ft | 344 kts | 87° |
| 2026-05-07 20:18 | 33.34162 | -118.38548 | 15900 ft | 346 kts | 92° |
| 2026-05-07 20:18 | 33.33965 | -118.35689 | 15837 ft | 345 kts | 93° |
| 2026-05-07 20:18 | 33.33753 | -118.32829 | 15789 ft | 345 kts | 93° |
| 2026-05-07 20:19 | 33.33551 | -118.29974 | 15721 ft | 344 kts | 92° |
| 2026-05-07 20:19 | 33.33364 | -118.27120 | 15658 ft | 344 kts | 92° |
| 2026-05-07 20:19 | 33.33190 | -118.24274 | 15600 ft | 344 kts | 92° |
| 2026-05-07 20:19 | 33.33021 | -118.21414 | 15280 ft | 345 kts | 92° |
| 2026-05-07 20:20 | 33.32856 | -118.18564 | 14850 ft | 342 kts | 92° |
| 2026-05-07 20:20 | 33.32695 | -118.15736 | 14388 ft | 340 kts | 92° |
| 2026-05-07 20:20 | 33.32579 | -118.12972 | 13922 ft | 336 kts | 88° |
| 2026-05-07 20:20 | 33.32885 | -118.10233 | 13385 ft | 331 kts | 72° |
| 2026-05-07 20:21 | 33.33907 | -118.07808 | 12902 ft | 326 kts | 53° |
| 2026-05-07 20:21 | 33.35379 | -118.05742 | 12443 ft | 328 kts | 47° |
| 2026-05-07 20:21 | 33.36972 | -118.03799 | 11985 ft | 326 kts | 45° |
| 2026-05-07 20:21 | 33.38574 | -118.01887 | 11521 ft | 324 kts | 45° |
| 2026-05-07 20:22 | 33.40242 | -118.00098 | 11040 ft | 322 kts | 34° |
| 2026-05-07 20:22 | 33.42203 | -117.98841 | 10819 ft | 318 kts | 25° |
| 2026-05-07 20:22 | 33.44191 | -117.97857 | 10705 ft | 299 kts | 22° |
| 2026-05-07 20:22 | 33.46070 | -117.96983 | 10595 ft | 282 kts | 22° |
| 2026-05-07 20:23 | 33.47887 | -117.96145 | 10361 ft | 281 kts | 22° |
| 2026-05-07 20:23 | 33.49703 | -117.95300 | 10003 ft | 279 kts | 22° |
| 2026-05-07 20:23 | 33.51504 | -117.94455 | 9606 ft | 277 kts | 21° |
| 2026-05-07 20:23 | 33.53302 | -117.93607 | 9081 ft | 278 kts | 21° |
| 2026-05-07 20:24 | 33.55095 | -117.92757 | 8607 ft | 276 kts | 21° |
| 2026-05-07 20:24 | 33.56866 | -117.91918 | 8221 ft | 272 kts | 21° |
| 2026-05-07 20:24 | 33.58614 | -117.91087 | 8007 ft | 270 kts | 21° |
| 2026-05-07 20:24 | 33.60352 | -117.90257 | 7943 ft | 273 kts | 21° |
| 2026-05-07 20:25 | 33.62111 | -117.89415 | 7882 ft | 274 kts | 21° |
| 2026-05-07 20:25 | 33.63884 | -117.88566 | 7818 ft | 274 kts | 21° |
| 2026-05-07 20:25 | 33.65649 | -117.87720 | 7765 ft | 273 kts | 21° |
| 2026-05-07 20:25 | 33.67415 | -117.86872 | 7706 ft | 273 kts | 21° |
| 2026-05-07 20:26 | 33.69181 | -117.86026 | 7642 ft | 274 kts | 21° |
| 2026-05-07 20:26 | 33.70948 | -117.85180 | 7574 ft | 274 kts | 21° |
| 2026-05-07 20:26 | 33.72719 | -117.84330 | 7521 ft | 274 kts | 21° |
| 2026-05-07 20:26 | 33.74488 | -117.83479 | 7463 ft | 273 kts | 21° |
| 2026-05-07 20:27 | 33.76256 | -117.82628 | 7384 ft | 274 kts | 21° |
| 2026-05-07 20:27 | 33.78021 | -117.81778 | 7303 ft | 274 kts | 20° |
| 2026-05-07 20:27 | 33.79788 | -117.80929 | 7166 ft | 274 kts | 21° |
| 2026-05-07 20:27 | 33.81504 | -117.80102 | 7051 ft | 262 kts | 21° |
| 2026-05-07 20:28 | 33.83144 | -117.79310 | 6998 ft | 246 kts | 21° |
| 2026-05-07 20:28 | 33.84639 | -117.78319 | 6980 ft | 248 kts | 38° |
| 2026-05-07 20:28 | 33.85702 | -117.76709 | 6989 ft | 249 kts | 63° |
| 2026-05-07 20:28 | 33.86336 | -117.74756 | 6996 ft | 253 kts | 70° |
| 2026-05-07 20:29 | 33.86867 | -117.72741 | 6993 ft | 252 kts | 72° |
| 2026-05-07 20:29 | 33.87380 | -117.70723 | 6982 ft | 252 kts | 71° |
| 2026-05-07 20:29 | 33.87894 | -117.68704 | 6985 ft | 252 kts | 71° |
| 2026-05-07 20:29 | 33.88407 | -117.66689 | 6989 ft | 252 kts | 71° |
| 2026-05-07 20:30 | 33.88919 | -117.64675 | 6988 ft | 252 kts | 71° |
| 2026-05-07 20:30 | 33.89433 | -117.62654 | 6981 ft | 252 kts | 72° |
| 2026-05-07 20:30 | 33.89947 | -117.60631 | 6986 ft | 253 kts | 72° |
| 2026-05-07 20:30 | 33.90462 | -117.58609 | 6985 ft | 253 kts | 71° |
| 2026-05-07 20:31 | 33.90978 | -117.56586 | 6991 ft | 253 kts | 71° |
| 2026-05-07 20:31 | 33.91485 | -117.54591 | 6987 ft | 252 kts | 71° |
| 2026-05-07 20:31 | 33.91996 | -117.52570 | 6985 ft | 252 kts | 72° |
| 2026-05-07 20:31 | 33.92506 | -117.50550 | 6955 ft | 253 kts | 72° |
| 2026-05-07 20:32 | 33.93015 | -117.48537 | 6906 ft | 252 kts | 71° |
| 2026-05-07 20:32 | 33.93525 | -117.46514 | 6858 ft | 252 kts | 71° |
| 2026-05-07 20:32 | 33.94035 | -117.44495 | 6792 ft | 252 kts | 71° |
| 2026-05-07 20:32 | 33.94373 | -117.43158 | 6763 ft | 252 kts | 71° |
| 2026-05-07 20:33 | 33.94883 | -117.41137 | 6699 ft | 253 kts | 70° |
| 2026-05-07 20:33 | 33.95402 | -117.39097 | 6417 ft | 255 kts | 72° |
| 2026-05-07 20:33 | 33.95923 | -117.37069 | 6062 ft | 250 kts | 70° |
| 2026-05-07 20:33 | 33.96662 | -117.35216 | 5692 ft | 245 kts | 51° |
| 2026-05-07 20:34 | 33.97962 | -117.33938 | 5322 ft | 241 kts | 21° |
| 2026-05-07 20:34 | 33.99587 | -117.33556 | 5058 ft | 237 kts | 359° |
| 2026-05-07 20:34 | 34.01112 | -117.33909 | 4955 ft | 209 kts | 336° |
| 2026-05-07 20:34 | 34.02413 | -117.34660 | 4638 ft | 206 kts | 330° |
| 2026-05-07 20:35 | 34.03660 | -117.35453 | 4341 ft | 199 kts | 330° |
| 2026-05-07 20:35 | 34.04789 | -117.36399 | 4276 ft | 194 kts | 308° |
| 2026-05-07 20:35 | 34.05274 | -117.37842 | 4071 ft | 185 kts | 275° |
| 2026-05-07 20:35 | 34.05372 | -117.39382 | 3857 ft | 183 kts | 272° |
| 2026-05-07 20:36 | 34.05446 | -117.40880 | 3667 ft | 174 kts | 273° |
| 2026-05-07 20:36 | 34.05493 | -117.42277 | 3412 ft | 163 kts | 268° |
| 2026-05-07 20:36 | 34.05483 | -117.43633 | 3255 ft | 161 kts | 268° |
| 2026-05-07 20:36 | 34.05478 | -117.44993 | 3053 ft | 163 kts | 269° |
| 2026-05-07 20:37 | 34.05474 | -117.46349 | 2844 ft | 164 kts | 268° |
| 2026-05-07 20:37 | 34.05478 | -117.47719 | 2626 ft | 163 kts | 271° |
| 2026-05-07 20:37 | 34.05476 | -117.49075 | 2407 ft | 161 kts | 268° |
| 2026-05-07 20:37 | 34.05481 | -117.50424 | 2204 ft | 159 kts | 267° |
| 2026-05-07 20:38 | 34.05483 | -117.51741 | 2044 ft | 159 kts | 269° |
| 2026-05-07 20:38 | 34.05487 | -117.53070 | 1823 ft | 156 kts | 269° |
| 2026-05-07 20:38 | 34.05485 | -117.54365 | 1593 ft | 157 kts | 266° |
| 2026-05-07 20:38 | 34.05445 | -117.55667 | 1457 ft | 152 kts | 272° |
| 2026-05-07 20:39 | 34.05494 | -117.56990 | 1247 ft | 161 kts | 268° |
| 2026-05-07 20:39 | 34.05498 | -117.58290 | 998 ft | 149 kts | 268° |
| 2026-05-07 20:39 | 34.05489 | -117.59404 | 951 ft | 112 kts | 269° |
| 2026-05-07 20:39 | 34.05496 | -117.60121 | 950 ft | 45 kts | 270° |
| 2026-05-07 20:40 | 34.05494 | -117.60352 | 950 ft | 21 kts | 269° |
| 2026-05-07 20:40 | 34.05472 | -117.60413 | 951 ft | 2 kts | 192° |
| 2026-05-07 20:40 | 34.05403 | -117.60349 | 952 ft | 23 kts | 118° |
| 2026-05-07 20:40 | 34.05388 | -117.60160 | 949 ft | 22 kts | 90° |
| 2026-05-07 20:41 | 34.05389 | -117.59979 | 949 ft | 21 kts | 90° |
| 2026-05-07 20:41 | 34.05389 | -117.59801 | 950 ft | 21 kts | 90° |
| 2026-05-07 20:41 | 34.05389 | -117.59616 | 953 ft | 23 kts | 90° |
| 2026-05-07 20:41 | 34.05390 | -117.59421 | 950 ft | 24 kts | 90° |
| 2026-05-07 20:42 | 34.05390 | -117.59215 | 952 ft | 25 kts | 90° |
| 2026-05-07 20:42 | 34.05390 | -117.58998 | 952 ft | 26 kts | 90° |
| 2026-05-07 20:42 | 34.05389 | -117.58780 | 952 ft | 26 kts | 90° |
| 2026-05-07 20:42 | 34.05389 | -117.58571 | 952 ft | 24 kts | 90° |
| 2026-05-07 20:43 | 34.05358 | -117.58403 | 950 ft | 16 kts | 147° |
| 2026-05-07 20:43 | 34.05276 | -117.58346 | 951 ft | 11 kts | 126° |
| 2026-05-07 20:43 | 34.05255 | -117.58264 | 949 ft | 10 kts | 104° |
| 2026-05-07 20:43 | 34.05239 | -117.58190 | 949 ft | 9 kts | 104° |
| 2026-05-07 20:44 | 34.05235 | -117.58150 | 952 ft | 3 kts | 90° |
| 2026-05-07 20:44 | 34.05235 | -117.58123 | 952 ft | 5 kts | 88° |
| 2026-05-07 20:44 | 34.05239 | -117.58034 | 950 ft | 16 kts | 87° |
| 2026-05-07 20:44 | 34.05244 | -117.57886 | 949 ft | 14 kts | 94° |
| 2026-05-07 20:45 | 34.05211 | -117.57834 | 948 ft | 7 kts | 152° |
| 2026-05-07 20:45 | 34.05170 | -117.57835 | 950 ft | 3 kts | 210° |
| 2026-05-07 20:45 | 34.05164 | -117.57865 | 952 ft | 7 kts | 265° |
| 2026-05-07 20:45 | 34.05162 | -117.57884 | 952 ft | 0 kts | 266° |
| 2026-05-07 20:46 | 34.05162 | -117.57885 | 952 ft | 0 kts | 266° |
| 2026-05-07 20:46 | 34.05162 | -117.57901 | 952 ft | 4 kts | 268° |
| 2026-05-07 20:46 | 34.05162 | -117.57903 | 952 ft | 0 kts | 268° |